createdAt,value
2018-05-31T00:00:50.631Z,0.00
2018-05-31T00:01:50.815Z,0.00
2018-05-31T00:02:50.990Z,0.00
2018-05-31T00:03:51.175Z,0.00
2018-05-31T00:04:51.358Z,0.00
2018-05-31T00:05:51.548Z,0.00
2018-05-31T00:06:51.735Z,0.00
2018-05-31T00:07:51.938Z,0.00
2018-05-31T00:08:52.115Z,0.00
2018-05-31T00:09:52.309Z,0.00
2018-05-31T00:10:52.484Z,0.00
2018-05-31T00:11:52.671Z,0.00
2018-05-31T00:12:52.860Z,0.00
2018-05-31T00:13:53.042Z,0.00
2018-05-31T00:14:53.238Z,0.00
2018-05-31T00:15:53.417Z,0.00
2018-05-31T00:16:53.605Z,0.00
2018-05-31T00:17:53.787Z,0.00
2018-05-31T00:18:53.971Z,0.00
2018-05-31T00:19:54.168Z,0.00
2018-05-31T00:20:54.328Z,0.00
2018-05-31T00:21:54.514Z,0.00
2018-05-31T00:22:54.695Z,0.00
2018-05-31T00:23:54.909Z,0.00
2018-05-31T00:24:55.079Z,0.00
2018-05-31T00:25:55.278Z,0.00
2018-05-31T00:26:55.464Z,0.00
2018-05-31T00:27:55.627Z,0.00
2018-05-31T00:28:55.812Z,0.00
2018-05-31T00:29:56.024Z,0.00
2018-05-31T00:30:56.184Z,0.00
2018-05-31T00:31:56.373Z,0.00
2018-05-31T00:32:56.560Z,0.00
2018-05-31T00:33:56.749Z,0.00
2018-05-31T00:34:56.940Z,0.00
2018-05-31T00:35:57.125Z,0.00
2018-05-31T00:36:57.296Z,0.00
2018-05-31T00:37:57.481Z,0.00
2018-05-31T00:38:57.647Z,0.00
2018-05-31T00:39:57.826Z,0.00
2018-05-31T00:40:58.022Z,0.00
2018-05-31T00:41:58.204Z,0.00
2018-05-31T00:42:58.386Z,0.00
2018-05-31T00:43:58.575Z,0.00
2018-05-31T00:44:58.757Z,0.00
2018-05-31T00:45:58.943Z,0.00
2018-05-31T00:46:59.130Z,0.00
2018-05-31T00:47:59.331Z,0.00
2018-05-31T00:48:59.502Z,0.00
2018-05-31T00:49:59.716Z,0.00
2018-05-31T00:50:59.881Z,0.00
2018-05-31T00:52:00.069Z,0.00
2018-05-31T00:53:00.248Z,0.00
2018-05-31T00:54:00.442Z,0.00
2018-05-31T00:55:00.623Z,0.00
2018-05-31T00:56:00.801Z,0.00
2018-05-31T00:57:00.998Z,0.00
2018-05-31T00:58:01.187Z,0.00
2018-05-31T00:59:01.381Z,0.00
2018-05-31T01:00:01.571Z,0.00
2018-05-31T01:01:01.740Z,0.00
2018-05-31T01:02:01.933Z,0.00
2018-05-31T01:03:02.115Z,0.00
2018-05-31T01:04:02.308Z,0.00
2018-05-31T01:05:02.492Z,0.00
2018-05-31T01:06:02.688Z,0.00
2018-05-31T01:07:02.877Z,0.00
2018-05-31T01:08:03.063Z,0.00
2018-05-31T01:09:03.263Z,0.00
2018-05-31T01:10:03.449Z,0.00
2018-05-31T01:11:03.624Z,0.00
2018-05-31T01:12:03.829Z,0.00
2018-05-31T01:13:04.004Z,0.00
2018-05-31T01:14:04.163Z,0.00
2018-05-31T01:15:04.381Z,0.00
2018-05-31T01:16:04.580Z,0.00
2018-05-31T01:17:04.721Z,0.00
2018-05-31T01:18:04.914Z,0.00
2018-05-31T01:19:05.110Z,0.00
2018-05-31T01:20:05.289Z,0.00
2018-05-31T01:21:05.486Z,0.00
2018-05-31T01:22:05.651Z,0.00
2018-05-31T01:23:05.855Z,0.00
2018-05-31T01:24:06.042Z,0.00
2018-05-31T01:25:06.232Z,0.00
2018-05-31T01:26:06.429Z,0.00
2018-05-31T01:27:06.608Z,0.00
2018-05-31T01:28:06.777Z,0.00
2018-05-31T01:29:06.966Z,0.00
2018-05-31T01:30:07.142Z,0.00
2018-05-31T01:31:07.360Z,0.00
2018-05-31T01:32:07.562Z,0.00
2018-05-31T01:33:07.734Z,0.00
2018-05-31T01:34:07.908Z,0.00
2018-05-31T01:35:08.090Z,0.00
2018-05-31T01:36:08.274Z,0.00
2018-05-31T01:37:08.458Z,0.00
2018-05-31T01:38:08.642Z,0.00
2018-05-31T01:39:08.823Z,0.00
2018-05-31T01:40:09.004Z,0.00
2018-05-31T01:41:09.219Z,0.00
2018-05-31T01:42:09.384Z,0.00
2018-05-31T01:43:09.575Z,0.00
2018-05-31T01:44:09.758Z,0.00
2018-05-31T01:45:09.941Z,0.00
2018-05-31T01:46:10.147Z,0.00
2018-05-31T01:47:10.321Z,0.00
2018-05-31T01:48:10.505Z,0.00
2018-05-31T01:49:10.694Z,0.00
2018-05-31T01:50:10.885Z,0.00
2018-05-31T01:51:11.118Z,0.00
2018-05-31T01:52:11.252Z,0.00
2018-05-31T01:53:11.457Z,0.00
2018-05-31T01:54:11.620Z,0.00
2018-05-31T01:55:11.830Z,0.00
2018-05-31T01:56:12.036Z,0.00
2018-05-31T01:57:12.252Z,0.00
2018-05-31T01:58:12.422Z,0.00
2018-05-31T01:59:12.605Z,0.00
2018-05-31T02:00:12.807Z,0.00
2018-05-31T02:01:12.983Z,0.00
2018-05-31T02:02:13.172Z,0.00
2018-05-31T02:03:13.353Z,0.00
2018-05-31T02:04:13.537Z,0.00
2018-05-31T02:05:13.740Z,0.00
2018-05-31T02:06:13.905Z,0.00
2018-05-31T02:07:14.080Z,0.00
2018-05-31T02:08:14.308Z,0.00
2018-05-31T02:09:14.457Z,0.00
2018-05-31T02:10:14.661Z,0.00
2018-05-31T02:11:14.850Z,0.00
2018-05-31T02:12:15.033Z,0.00
2018-05-31T02:13:15.218Z,0.00
2018-05-31T02:14:15.400Z,0.00
2018-05-31T02:15:15.604Z,0.00
2018-05-31T02:16:15.777Z,0.00
2018-05-31T02:17:15.965Z,0.00
2018-05-31T02:18:16.166Z,0.00
2018-05-31T02:19:16.339Z,0.00
2018-05-31T02:20:16.522Z,0.00
2018-05-31T02:21:16.723Z,0.00
2018-05-31T02:22:16.890Z,0.00
2018-05-31T02:23:17.079Z,0.00
2018-05-31T02:24:17.266Z,0.00
2018-05-31T02:25:17.458Z,0.00
2018-05-31T02:26:17.650Z,0.00
2018-05-31T02:27:17.849Z,0.00
2018-05-31T02:28:18.010Z,0.00
2018-05-31T02:29:18.198Z,0.00
2018-05-31T02:30:18.395Z,0.00
2018-05-31T02:31:18.562Z,4.00
2018-05-31T02:32:18.760Z,4.00
2018-05-31T02:33:18.955Z,0.00
2018-05-31T02:34:19.099Z,0.00
2018-05-31T02:35:19.296Z,4.00
2018-05-31T02:36:19.470Z,4.00
2018-05-31T02:37:19.660Z,0.00
2018-05-31T02:38:19.847Z,4.00
2018-05-31T02:39:20.030Z,4.00
2018-05-31T02:40:20.229Z,4.00
2018-05-31T02:41:20.453Z,8.00
2018-05-31T02:42:20.622Z,4.00
2018-05-31T02:43:20.776Z,4.00
2018-05-31T02:44:20.976Z,8.00
2018-05-31T02:45:21.191Z,8.00
2018-05-31T02:46:21.383Z,12.00
2018-05-31T02:47:21.597Z,12.00
2018-05-31T02:48:21.770Z,16.00
2018-05-31T02:49:21.937Z,12.00
2018-05-31T02:50:22.157Z,16.00
2018-05-31T02:51:22.370Z,20.00
2018-05-31T02:52:22.538Z,20.00
2018-05-31T02:53:22.727Z,24.00
2018-05-31T02:54:22.908Z,24.00
2018-05-31T02:55:23.133Z,28.00
2018-05-31T02:56:23.317Z,32.00
2018-05-31T02:57:23.501Z,36.00
2018-05-31T02:58:23.682Z,40.00
2018-05-31T02:59:23.869Z,48.00
2018-05-31T03:00:24.061Z,48.00
2018-05-31T03:01:24.247Z,56.00
2018-05-31T03:02:24.437Z,60.00
2018-05-31T03:03:24.629Z,72.00
2018-05-31T03:04:24.818Z,76.00
2018-05-31T03:05:24.998Z,80.00
2018-05-31T03:06:25.206Z,88.00
2018-05-31T03:07:25.403Z,96.00
2018-05-31T03:08:25.591Z,108.00
2018-05-31T03:09:25.803Z,116.00
2018-05-31T03:10:25.963Z,128.00
2018-05-31T03:11:26.149Z,140.00
2018-05-31T03:12:26.323Z,152.00
2018-05-31T03:13:26.502Z,168.00
2018-05-31T03:14:26.707Z,180.00
2018-05-31T03:15:26.898Z,192.00
2018-05-31T03:16:27.089Z,208.00
2018-05-31T03:17:27.275Z,224.00
2018-05-31T03:18:27.467Z,240.00
2018-05-31T03:19:27.662Z,256.00
2018-05-31T03:20:27.848Z,276.00
2018-05-31T03:21:28.047Z,296.00
2018-05-31T03:22:28.228Z,320.00
2018-05-31T03:23:28.410Z,344.00
2018-05-31T03:24:28.598Z,368.00
2018-05-31T03:25:28.786Z,400.00
2018-05-31T03:26:29.006Z,436.00
2018-05-31T03:27:29.164Z,480.00
2018-05-31T03:28:29.344Z,528.00
2018-05-31T03:29:29.521Z,576.00
2018-05-31T03:30:29.712Z,628.00
2018-05-31T03:31:29.897Z,664.00
2018-05-31T03:32:30.087Z,700.00
2018-05-31T03:33:30.280Z,728.00
2018-05-31T03:34:30.461Z,744.00
2018-05-31T03:35:30.647Z,760.00
2018-05-31T03:36:30.836Z,772.00
2018-05-31T03:37:31.022Z,792.00
2018-05-31T03:38:31.209Z,824.00
2018-05-31T03:39:31.405Z,868.00
2018-05-31T03:40:31.622Z,916.00
2018-05-31T03:41:31.787Z,976.00
2018-05-31T03:42:31.974Z,1052.00
2018-05-31T03:43:32.163Z,1148.00
2018-05-31T03:44:32.385Z,1264.00
2018-05-31T03:45:32.533Z,1400.00
2018-05-31T03:46:32.727Z,1556.00
2018-05-31T03:47:32.912Z,1692.00
2018-05-31T03:48:33.104Z,1796.00
2018-05-31T03:49:33.287Z,1896.00
2018-05-31T03:50:33.477Z,1996.00
2018-05-31T03:51:33.665Z,2080.00
2018-05-31T03:52:33.843Z,2092.00
2018-05-31T03:53:34.106Z,2144.00
2018-05-31T03:54:34.202Z,2332.00
2018-05-31T03:55:34.392Z,2564.00
2018-05-31T03:56:34.574Z,2688.00
2018-05-31T03:57:34.761Z,2772.00
2018-05-31T03:58:34.951Z,2824.00
2018-05-31T03:59:35.136Z,2852.00
2018-05-31T04:00:35.311Z,2844.00
2018-05-31T04:01:35.511Z,2720.00
2018-05-31T04:02:35.686Z,2612.00
2018-05-31T04:03:35.892Z,2624.00
2018-05-31T04:04:36.064Z,2576.00
2018-05-31T04:05:36.242Z,2404.00
2018-05-31T04:06:36.427Z,2276.00
2018-05-31T04:07:36.623Z,2344.00
2018-05-31T04:08:36.807Z,2552.00
2018-05-31T04:09:37.000Z,2628.00
2018-05-31T04:10:37.189Z,2524.00
2018-05-31T04:11:37.375Z,2324.00
2018-05-31T04:12:37.577Z,2348.00
2018-05-31T04:13:37.753Z,2308.00
2018-05-31T04:14:37.919Z,2252.00
2018-05-31T04:15:38.098Z,2148.00
2018-05-31T04:16:38.287Z,2228.00
2018-05-31T04:17:38.488Z,2396.00
2018-05-31T04:18:38.651Z,2568.00
2018-05-31T04:19:38.841Z,2884.00
2018-05-31T04:20:39.022Z,2852.00
2018-05-31T04:21:39.207Z,2352.00
2018-05-31T04:22:39.398Z,2292.00
2018-05-31T04:23:39.591Z,2780.00
2018-05-31T04:24:39.773Z,2132.00
2018-05-31T04:25:39.966Z,2228.00
2018-05-31T04:26:40.151Z,2524.00
2018-05-31T04:27:40.339Z,2476.00
2018-05-31T04:28:40.527Z,1844.00
2018-05-31T04:29:40.721Z,1500.00
2018-05-31T04:30:40.905Z,1840.00
2018-05-31T04:31:41.092Z,1916.00
2018-05-31T04:32:41.281Z,2440.00
2018-05-31T04:33:41.523Z,2652.00
2018-05-31T04:34:41.654Z,2360.00
2018-05-31T04:35:41.838Z,2168.00
2018-05-31T04:36:42.017Z,1932.00
2018-05-31T04:37:42.205Z,2476.00
2018-05-31T04:38:42.388Z,2940.00
2018-05-31T04:39:42.585Z,2804.00
2018-05-31T04:40:42.788Z,2776.00
2018-05-31T04:41:42.977Z,3196.00
2018-05-31T04:42:43.142Z,3508.00
2018-05-31T04:43:43.329Z,3820.00
2018-05-31T04:44:43.523Z,4800.00
2018-05-31T04:45:43.698Z,4992.00
2018-05-31T04:46:43.903Z,5540.00
2018-05-31T04:47:44.093Z,5848.00
2018-05-31T04:48:44.299Z,5260.00
2018-05-31T04:49:44.460Z,5776.00
2018-05-31T04:50:44.650Z,7444.00
2018-05-31T04:51:44.842Z,6392.00
2018-05-31T04:52:45.027Z,5696.00
2018-05-31T04:53:45.217Z,4512.00
2018-05-31T04:54:45.409Z,5412.00
2018-05-31T04:55:45.600Z,6688.00
2018-05-31T04:56:45.784Z,6872.00
2018-05-31T04:57:45.960Z,7592.00
2018-05-31T04:58:46.170Z,8212.00
2018-05-31T04:59:46.349Z,5532.00
2018-05-31T05:00:46.540Z,6504.00
2018-05-31T05:01:46.734Z,8400.00
2018-05-31T05:02:46.921Z,7260.00
2018-05-31T05:03:47.116Z,7476.00
2018-05-31T05:04:47.288Z,7864.00
2018-05-31T05:05:47.467Z,8212.00
2018-05-31T05:06:47.661Z,6032.00
2018-05-31T05:07:47.862Z,6516.00
2018-05-31T05:08:48.041Z,6160.00
2018-05-31T05:09:48.259Z,6112.00
2018-05-31T05:10:48.420Z,7440.00
2018-05-31T05:11:48.612Z,6640.00
2018-05-31T05:12:48.797Z,7476.00
2018-05-31T05:13:48.986Z,8252.00
2018-05-31T05:14:49.174Z,10432.00
2018-05-31T05:15:49.356Z,9468.00
2018-05-31T05:16:49.536Z,10244.00
2018-05-31T05:17:49.733Z,12108.00
2018-05-31T05:18:49.907Z,12948.00
2018-05-31T05:19:50.097Z,12924.00
2018-05-31T05:20:50.283Z,17696.00
2018-05-31T05:21:50.487Z,24864.00
2018-05-31T05:22:50.660Z,22528.00
2018-05-31T05:23:50.846Z,31712.00
2018-05-31T05:24:51.034Z,31328.00
2018-05-31T05:25:51.223Z,28768.00
2018-05-31T05:26:51.437Z,24512.00
2018-05-31T05:27:51.608Z,24640.00
2018-05-31T05:28:51.796Z,22752.00
2018-05-31T05:29:51.986Z,20992.00
2018-05-31T05:30:52.174Z,24224.00
2018-05-31T05:31:52.357Z,23584.00
2018-05-31T05:32:52.548Z,27712.00
2018-05-31T05:33:52.745Z,36576.00
2018-05-31T05:34:52.926Z,49344.00
2018-05-31T05:35:53.130Z,55904.00
2018-05-31T05:36:53.322Z,59616.00
2018-05-31T05:37:53.511Z,59616.00
2018-05-31T05:38:53.707Z,59712.00
2018-05-31T05:39:53.903Z,58112.00
2018-05-31T05:40:54.097Z,56800.00
2018-05-31T05:41:54.292Z,57088.00
2018-05-31T05:42:54.480Z,58176.00
2018-05-31T05:43:54.678Z,60448.00
2018-05-31T05:44:54.939Z,65152.00
2018-05-31T05:45:55.066Z,66368.00
2018-05-31T05:46:55.264Z,64160.00
2018-05-31T05:47:55.452Z,64096.00
2018-05-31T05:48:55.644Z,63680.00
2018-05-31T05:49:55.841Z,65184.00
2018-05-31T05:50:56.038Z,49536.00
2018-05-31T05:51:56.238Z,40128.00
2018-05-31T05:52:56.430Z,37664.00
2018-05-31T05:53:56.628Z,24224.00
2018-05-31T05:54:56.817Z,19008.00
2018-05-31T05:55:57.019Z,21376.00
2018-05-31T05:56:57.226Z,18336.00
2018-05-31T05:57:57.417Z,17760.00
2018-05-31T05:58:57.621Z,17600.00
2018-05-31T05:59:57.802Z,18368.00
2018-05-31T06:00:57.999Z,15488.00
2018-05-31T06:01:58.231Z,16032.00
2018-05-31T06:02:58.407Z,20864.00
2018-05-31T06:03:58.606Z,28704.00
2018-05-31T06:04:58.795Z,19872.00
2018-05-31T06:05:58.991Z,16096.00
2018-05-31T06:06:59.228Z,19584.00
2018-05-31T06:07:59.386Z,28448.00
2018-05-31T06:08:59.581Z,28096.00
2018-05-31T06:09:59.832Z,18816.00
2018-05-31T06:10:59.960Z,14196.00
2018-05-31T06:12:00.167Z,14212.00
2018-05-31T06:13:00.364Z,12792.00
2018-05-31T06:14:00.560Z,13616.00
2018-05-31T06:15:00.764Z,14276.00
2018-05-31T06:16:00.945Z,12248.00
2018-05-31T06:17:01.133Z,11336.00
2018-05-31T06:18:01.348Z,11960.00
2018-05-31T06:19:01.529Z,12796.00
2018-05-31T06:20:01.728Z,16448.00
2018-05-31T06:21:01.919Z,15100.00
2018-05-31T06:22:02.116Z,14076.00
2018-05-31T06:23:02.316Z,16480.00
2018-05-31T06:24:02.507Z,13248.00
2018-05-31T06:25:02.709Z,14424.00
2018-05-31T06:26:02.888Z,14652.00
2018-05-31T06:27:03.103Z,15808.00
2018-05-31T06:28:03.297Z,16096.00
2018-05-31T06:29:03.500Z,18880.00
2018-05-31T06:30:03.697Z,22656.00
2018-05-31T06:31:03.887Z,20896.00
2018-05-31T06:32:04.113Z,14736.00
2018-05-31T06:33:04.264Z,18016.00
2018-05-31T06:34:04.453Z,23424.00
2018-05-31T06:35:04.644Z,19392.00
2018-05-31T06:36:04.842Z,15744.00
2018-05-31T06:37:05.049Z,18368.00
2018-05-31T06:38:05.235Z,11444.00
2018-05-31T06:39:05.437Z,12436.00
2018-05-31T06:40:05.654Z,13452.00
2018-05-31T06:41:05.829Z,11996.00
2018-05-31T06:42:06.022Z,11148.00
2018-05-31T06:43:06.214Z,10776.00
2018-05-31T06:44:06.401Z,10192.00
2018-05-31T06:45:06.596Z,10380.00
2018-05-31T06:46:06.794Z,10444.00
2018-05-31T06:47:06.971Z,10584.00
2018-05-31T06:48:07.170Z,11236.00
2018-05-31T06:49:07.362Z,11880.00
2018-05-31T06:50:07.560Z,12576.00
2018-05-31T06:51:07.757Z,12968.00
2018-05-31T06:52:07.952Z,14912.00
2018-05-31T06:53:08.155Z,16064.00
2018-05-31T06:54:08.338Z,18016.00
2018-05-31T06:55:08.534Z,15136.00
2018-05-31T06:56:08.725Z,15104.00
2018-05-31T06:57:08.918Z,13680.00
2018-05-31T06:58:09.106Z,11712.00
2018-05-31T06:59:09.297Z,11264.00
2018-05-31T07:00:09.494Z,12488.00
2018-05-31T07:01:09.690Z,12044.00
2018-05-31T07:02:09.888Z,10932.00
2018-05-31T07:03:10.088Z,11180.00
2018-05-31T07:04:10.287Z,11560.00
2018-05-31T07:05:10.473Z,12148.00
2018-05-31T07:06:10.670Z,12520.00
2018-05-31T07:07:10.869Z,13136.00
2018-05-31T07:08:11.067Z,13768.00
2018-05-31T07:09:11.249Z,14392.00
2018-05-31T07:10:11.456Z,16320.00
2018-05-31T07:11:11.620Z,22240.00
2018-05-31T07:12:11.819Z,28256.00
2018-05-31T07:13:12.017Z,43936.00
2018-05-31T07:14:12.214Z,59104.00
2018-05-31T07:15:12.416Z,73216.00
2018-05-31T07:16:12.612Z,78272.00
2018-05-31T07:17:12.810Z,83680.00
2018-05-31T07:18:13.003Z,86944.00
2018-05-31T07:19:13.207Z,90304.00
2018-05-31T07:20:13.395Z,90880.00
2018-05-31T07:21:13.594Z,90432.00
2018-05-31T07:22:13.783Z,90080.00
2018-05-31T07:23:13.985Z,89088.00
2018-05-31T07:24:14.176Z,88864.00
2018-05-31T07:25:14.353Z,85888.00
2018-05-31T07:26:14.548Z,81440.00
2018-05-31T07:27:14.770Z,76064.00
2018-05-31T07:28:14.934Z,68544.00
2018-05-31T07:29:15.129Z,62592.00
2018-05-31T07:30:15.334Z,52704.00
2018-05-31T07:31:15.534Z,56832.00
2018-05-31T07:32:15.736Z,56640.00
2018-05-31T07:33:15.933Z,69824.00
2018-05-31T07:34:16.132Z,81504.00
2018-05-31T07:35:16.334Z,82432.00
2018-05-31T07:36:16.579Z,79104.00
2018-05-31T07:37:16.727Z,74368.00
2018-05-31T07:38:16.927Z,69280.00
2018-05-31T07:39:17.119Z,64320.00
2018-05-31T07:40:17.316Z,58432.00
2018-05-31T07:41:17.502Z,87424.00
2018-05-31T07:42:17.705Z,90912.00
2018-05-31T07:43:17.900Z,88064.00
2018-05-31T07:44:18.132Z,88064.00
2018-05-31T07:45:18.300Z,87488.00
2018-05-31T07:46:18.498Z,84960.00
2018-05-31T07:47:18.696Z,85920.00
2018-05-31T07:48:18.899Z,78720.00
2018-05-31T07:49:19.098Z,80704.00
2018-05-31T07:50:19.298Z,74464.00
2018-05-31T07:51:19.521Z,61216.00
2018-05-31T07:52:19.705Z,76384.00
2018-05-31T07:53:19.893Z,76192.00
2018-05-31T07:54:20.102Z,81312.00
2018-05-31T07:55:20.299Z,84832.00
2018-05-31T07:56:20.499Z,85024.00
2018-05-31T07:57:20.699Z,86976.00
2018-05-31T07:58:20.946Z,90304.00
2018-05-31T07:59:21.098Z,88640.00
2018-05-31T08:00:21.295Z,84448.00
2018-05-31T08:01:21.497Z,80704.00
2018-05-31T08:02:21.701Z,79104.00
2018-05-31T08:03:21.910Z,76928.00
2018-05-31T08:04:22.090Z,65152.00
2018-05-31T08:05:22.293Z,41600.00
2018-05-31T08:06:22.493Z,26720.00
2018-05-31T08:07:22.707Z,25312.00
2018-05-31T08:08:22.883Z,27392.00
2018-05-31T08:09:23.097Z,28512.00
2018-05-31T08:10:23.307Z,31872.00
2018-05-31T08:11:23.499Z,39936.00
2018-05-31T08:12:23.701Z,46432.00
2018-05-31T08:13:23.898Z,44320.00
2018-05-31T08:14:24.124Z,39616.00
2018-05-31T08:15:24.296Z,36480.00
2018-05-31T08:16:24.499Z,31424.00
2018-05-31T08:17:24.697Z,26848.00
2018-05-31T08:18:24.899Z,25376.00
2018-05-31T08:19:25.117Z,23520.00
2018-05-31T08:20:25.293Z,21952.00
2018-05-31T08:21:25.478Z,20704.00
2018-05-31T08:22:25.701Z,18688.00
2018-05-31T08:23:25.900Z,17632.00
2018-05-31T08:24:26.096Z,17312.00
2018-05-31T08:25:26.295Z,16640.00
2018-05-31T08:26:26.495Z,16352.00
2018-05-31T08:27:26.700Z,15968.00
2018-05-31T08:28:26.900Z,17440.00
2018-05-31T08:29:27.123Z,16480.00
2018-05-31T08:30:27.322Z,15584.00
2018-05-31T08:31:27.547Z,14368.00
2018-05-31T08:32:27.723Z,14976.00
2018-05-31T08:33:27.911Z,12316.00
2018-05-31T08:34:28.119Z,10996.00
2018-05-31T08:35:28.319Z,9128.00
2018-05-31T08:36:28.537Z,8280.00
2018-05-31T08:37:28.709Z,8052.00
2018-05-31T08:38:28.911Z,8176.00
2018-05-31T08:39:29.120Z,11144.00
2018-05-31T08:40:29.319Z,8908.00
2018-05-31T08:41:29.505Z,8844.00
2018-05-31T08:42:29.725Z,8272.00
2018-05-31T08:43:29.930Z,7844.00
2018-05-31T08:44:30.126Z,7440.00
2018-05-31T08:45:30.327Z,7740.00
2018-05-31T08:46:30.524Z,8332.00
2018-05-31T08:47:30.728Z,8572.00
2018-05-31T08:48:30.940Z,8600.00
2018-05-31T08:49:31.130Z,9396.00
2018-05-31T08:50:31.346Z,10964.00
2018-05-31T08:51:31.547Z,16800.00
2018-05-31T08:52:31.736Z,17216.00
2018-05-31T08:53:31.955Z,14592.00
2018-05-31T08:54:32.153Z,11932.00
2018-05-31T08:55:32.353Z,10500.00
2018-05-31T08:56:32.552Z,10384.00
2018-05-31T08:57:32.749Z,8344.00
2018-05-31T08:58:32.961Z,10392.00
2018-05-31T08:59:33.135Z,11892.00
2018-05-31T09:00:33.336Z,12040.00
2018-05-31T09:01:33.539Z,10648.00
2018-05-31T09:02:33.739Z,10588.00
2018-05-31T09:03:33.953Z,12444.00
2018-05-31T09:04:34.124Z,12388.00
2018-05-31T09:05:34.346Z,16576.00
2018-05-31T09:06:34.544Z,29216.00
2018-05-31T09:07:34.747Z,40704.00
2018-05-31T09:08:34.925Z,57024.00
2018-05-31T09:09:35.147Z,38976.00
2018-05-31T09:10:35.350Z,20576.00
2018-05-31T09:11:35.540Z,7680.00
2018-05-31T09:12:35.767Z,10084.00
2018-05-31T09:13:35.948Z,9588.00
2018-05-31T09:14:36.147Z,9948.00
2018-05-31T09:15:36.350Z,7372.00
2018-05-31T09:16:36.543Z,7308.00
2018-05-31T09:17:36.759Z,5860.00
2018-05-31T09:18:36.963Z,7012.00
2018-05-31T09:19:37.163Z,13236.00
2018-05-31T09:20:37.351Z,8868.00
2018-05-31T09:21:37.567Z,6460.00
2018-05-31T09:22:37.803Z,7108.00
2018-05-31T09:23:38.003Z,6532.00
2018-05-31T09:24:38.195Z,6504.00
2018-05-31T09:25:38.393Z,7976.00
2018-05-31T09:26:38.607Z,9636.00
2018-05-31T09:27:38.783Z,11488.00
2018-05-31T09:28:39.098Z,11080.00
2018-05-31T09:29:39.198Z,12268.00
2018-05-31T09:30:39.400Z,11412.00
2018-05-31T09:31:39.588Z,11488.00
2018-05-31T09:32:39.786Z,11216.00
2018-05-31T09:33:39.979Z,9208.00
2018-05-31T09:34:40.176Z,9904.00
2018-05-31T09:35:40.370Z,8872.00
2018-05-31T09:36:40.570Z,10100.00
2018-05-31T09:37:40.767Z,6860.00
2018-05-31T09:38:40.969Z,9612.00
2018-05-31T09:39:41.166Z,6796.00
2018-05-31T09:40:41.360Z,8616.00
2018-05-31T09:41:41.563Z,6236.00
2018-05-31T09:42:41.767Z,7564.00
2018-05-31T09:43:41.975Z,7316.00
2018-05-31T09:44:42.172Z,5704.00
2018-05-31T09:45:42.369Z,5412.00
2018-05-31T09:46:42.568Z,5396.00
2018-05-31T09:47:42.769Z,5384.00
2018-05-31T09:48:42.962Z,5292.00
2018-05-31T09:49:43.190Z,5092.00
2018-05-31T09:50:43.380Z,4992.00
2018-05-31T09:51:43.573Z,4988.00
2018-05-31T09:52:43.783Z,4896.00
2018-05-31T09:53:44.033Z,4812.00
2018-05-31T09:54:44.182Z,4744.00
2018-05-31T09:55:44.367Z,4796.00
2018-05-31T09:56:44.622Z,4824.00
2018-05-31T09:57:44.793Z,4748.00
2018-05-31T09:58:44.953Z,4680.00
2018-05-31T09:59:45.151Z,4672.00
2018-05-31T10:00:45.379Z,4744.00
2018-05-31T10:01:45.540Z,4776.00
2018-05-31T10:02:45.740Z,4908.00
2018-05-31T10:03:45.940Z,4996.00
2018-05-31T10:04:46.141Z,4984.00
2018-05-31T10:05:46.343Z,5024.00
2018-05-31T10:06:46.544Z,4968.00
2018-05-31T10:07:46.746Z,4916.00
2018-05-31T10:08:46.935Z,4748.00
2018-05-31T10:09:47.141Z,3992.00
2018-05-31T10:10:47.339Z,3864.00
2018-05-31T10:11:47.540Z,4084.00
2018-05-31T10:12:47.721Z,4028.00
2018-05-31T10:13:47.940Z,4100.00
2018-05-31T10:14:48.139Z,4188.00
2018-05-31T10:15:48.348Z,4448.00
2018-05-31T10:16:48.544Z,4588.00
2018-05-31T10:17:48.744Z,5228.00
2018-05-31T10:18:48.939Z,5192.00
2018-05-31T10:19:49.135Z,4680.00
2018-05-31T10:20:49.331Z,5120.00
2018-05-31T10:21:49.538Z,5352.00
2018-05-31T10:22:49.731Z,5600.00
2018-05-31T10:23:49.925Z,5336.00
2018-05-31T10:24:50.108Z,5024.00
2018-05-31T10:25:50.302Z,4796.00
2018-05-31T10:26:50.495Z,4556.00
2018-05-31T10:27:50.698Z,4344.00
2018-05-31T10:28:50.894Z,4100.00
2018-05-31T10:29:51.075Z,4248.00
2018-05-31T10:30:51.274Z,4348.00
2018-05-31T10:31:51.478Z,4588.00
2018-05-31T10:32:51.675Z,4724.00
2018-05-31T10:33:51.869Z,4720.00
2018-05-31T10:34:52.081Z,4776.00
2018-05-31T10:35:52.297Z,4948.00
2018-05-31T10:36:52.496Z,5148.00
2018-05-31T10:37:52.662Z,5408.00
2018-05-31T10:38:52.854Z,5448.00
2018-05-31T10:39:53.045Z,5336.00
2018-05-31T10:40:53.251Z,5396.00
2018-05-31T10:41:53.455Z,5624.00
2018-05-31T10:42:53.657Z,5832.00
2018-05-31T10:43:53.840Z,5968.00
2018-05-31T10:44:54.027Z,6248.00
2018-05-31T10:45:54.249Z,6356.00
2018-05-31T10:46:54.417Z,6300.00
2018-05-31T10:47:54.621Z,6184.00
2018-05-31T10:48:54.864Z,6124.00
2018-05-31T10:49:55.077Z,6056.00
2018-05-31T10:50:55.274Z,6032.00
2018-05-31T10:51:55.415Z,5860.00
2018-05-31T10:52:55.613Z,5616.00
2018-05-31T10:53:55.808Z,5384.00
2018-05-31T10:54:56.005Z,5220.00
2018-05-31T10:55:56.213Z,5228.00
2018-05-31T10:56:56.409Z,5172.00
2018-05-31T10:57:56.600Z,5200.00
2018-05-31T10:58:56.803Z,5244.00
2018-05-31T10:59:56.980Z,5100.00
2018-05-31T11:00:57.196Z,5020.00
2018-05-31T11:01:57.376Z,5128.00
2018-05-31T11:02:57.571Z,5224.00
2018-05-31T11:03:57.756Z,5524.00
2018-05-31T11:04:57.971Z,5756.00
2018-05-31T11:05:58.142Z,5804.00
2018-05-31T11:06:58.330Z,5720.00
2018-05-31T11:07:58.541Z,5804.00
2018-05-31T11:08:58.713Z,5784.00
2018-05-31T11:09:58.915Z,5776.00
2018-05-31T11:10:59.095Z,5608.00
2018-05-31T11:11:59.283Z,5400.00
2018-05-31T11:12:59.496Z,5156.00
2018-05-31T11:13:59.693Z,5012.00
2018-05-31T11:14:59.921Z,4932.00
2018-05-31T11:16:00.087Z,4704.00
2018-05-31T11:17:00.261Z,3968.00
2018-05-31T11:18:00.452Z,3800.00
2018-05-31T11:19:00.651Z,3648.00
2018-05-31T11:20:00.838Z,3536.00
2018-05-31T11:21:01.052Z,3488.00
2018-05-31T11:22:01.250Z,3528.00
2018-05-31T11:23:01.448Z,3600.00
2018-05-31T11:24:01.646Z,3684.00
2018-05-31T11:25:01.845Z,3952.00
2018-05-31T11:26:02.005Z,3756.00
2018-05-31T11:27:02.203Z,3876.00
2018-05-31T11:28:02.395Z,4440.00
2018-05-31T11:29:02.586Z,4644.00
2018-05-31T11:30:02.778Z,4868.00
2018-05-31T11:31:02.976Z,5068.00
2018-05-31T11:32:03.171Z,5104.00
2018-05-31T11:33:03.381Z,5040.00
2018-05-31T11:34:03.559Z,4892.00
2018-05-31T11:35:03.753Z,4684.00
2018-05-31T11:36:03.948Z,4420.00
2018-05-31T11:37:04.156Z,4344.00
2018-05-31T11:38:04.332Z,4284.00
2018-05-31T11:39:04.528Z,4284.00
2018-05-31T11:40:04.758Z,4228.00
2018-05-31T11:41:04.937Z,4056.00
2018-05-31T11:42:05.106Z,3880.00
2018-05-31T11:43:05.323Z,3660.00
2018-05-31T11:44:05.529Z,3088.00
2018-05-31T11:45:05.733Z,3032.00
2018-05-31T11:46:05.897Z,3108.00
2018-05-31T11:47:06.100Z,3512.00
2018-05-31T11:48:06.294Z,3736.00
2018-05-31T11:49:06.490Z,3808.00
2018-05-31T11:50:06.691Z,3836.00
2018-05-31T11:51:06.881Z,3884.00
2018-05-31T11:52:07.076Z,3880.00
2018-05-31T11:53:07.267Z,3916.00
2018-05-31T11:54:07.464Z,3960.00
2018-05-31T11:55:07.664Z,3948.00
2018-05-31T11:56:07.856Z,3932.00
2018-05-31T11:57:08.073Z,3940.00
2018-05-31T11:58:08.249Z,3880.00
2018-05-31T11:59:08.448Z,3936.00
2018-05-31T12:00:08.656Z,3816.00
2018-05-31T12:01:08.853Z,4092.00
2018-05-31T12:02:09.039Z,3688.00
2018-05-31T12:03:09.248Z,3600.00
2018-05-31T12:04:09.437Z,3740.00
2018-05-31T12:05:09.634Z,3812.00
2018-05-31T12:06:09.818Z,3744.00
2018-05-31T12:07:10.044Z,3792.00
2018-05-31T12:08:10.285Z,3632.00
2018-05-31T12:09:10.435Z,3664.00
2018-05-31T12:10:10.633Z,3768.00
2018-05-31T12:11:10.831Z,3936.00
2018-05-31T12:12:11.039Z,4004.00
2018-05-31T12:13:11.213Z,4184.00
2018-05-31T12:14:11.401Z,4620.00
2018-05-31T12:15:11.605Z,4672.00
2018-05-31T12:16:11.799Z,4688.00
2018-05-31T12:17:12.020Z,4736.00
2018-05-31T12:18:12.178Z,4584.00
2018-05-31T12:19:12.385Z,4836.00